sensor_id;sensor_type;location;lat;lon;timestamp;pressure;altitude;pressure_sealevel;temperature;humidity
48156;BME280;35568;48.104;11.782;2022-09-09T00:02:16;95207.93;;;15.19;51.03
48156;BME280;35568;48.104;11.782;2022-09-09T00:04:50;95205.99;;;15.14;50.81
48156;BME280;35568;48.104;11.782;2022-09-09T00:07:24;95207.97;;;15.15;50.71
48156;BME280;35568;48.104;11.782;2022-09-09T00:09:57;95207.76;;;15.22;50.81
48156;BME280;35568;48.104;11.782;2022-09-09T00:12:34;95208.97;;;15.07;50.80
48156;BME280;35568;48.104;11.782;2022-09-09T00:15:07;95209.02;;;14.95;51.01
48156;BME280;35568;48.104;11.782;2022-09-09T00:17:45;95210.32;;;15.29;50.87
48156;BME280;35568;48.104;11.782;2022-09-09T00:20:19;95210.98;;;15.25;51.04
48156;BME280;35568;48.104;11.782;2022-09-09T00:22:53;95211.85;;;15.05;51.16
48156;BME280;35568;48.104;11.782;2022-09-09T00:25:26;95210.26;;;15.35;51.23
48156;BME280;35568;48.104;11.782;2022-09-09T00:27:55;95207.44;;;15.12;51.25
48156;BME280;35568;48.104;11.782;2022-09-09T00:30:24;95204.85;;;15.67;51.28
48156;BME280;35568;48.104;11.782;2022-09-09T00:32:54;95205.48;;;15.52;50.89
48156;BME280;35568;48.104;11.782;2022-09-09T00:35:24;95208.80;;;15.12;50.64
48156;BME280;35568;48.104;11.782;2022-09-09T00:37:54;95211.31;;;15.61;50.48
48156;BME280;35568;48.104;11.782;2022-09-09T00:40:27;95213.75;;;15.28;50.75
48156;BME280;35568;48.104;11.782;2022-09-09T00:43:10;95214.29;;;15.65;50.67
48156;BME280;35568;48.104;11.782;2022-09-09T00:45:55;95214.29;;;15.84;50.63
48156;BME280;35568;48.104;11.782;2022-09-09T00:48:32;95216.83;;;15.75;50.38
48156;BME280;35568;48.104;11.782;2022-09-09T00:51:07;95213.62;;;15.90;50.78
48156;BME280;35568;48.104;11.782;2022-09-09T00:53:39;95214.73;;;15.93;50.39
48156;BME280;35568;48.104;11.782;2022-09-09T00:56:12;95215.01;;;15.83;50.40
48156;BME280;35568;48.104;11.782;2022-09-09T00:58:42;95213.75;;;15.73;50.32
48156;BME280;35568;48.104;11.782;2022-09-09T01:01:10;95219.10;;;15.41;50.26
48156;BME280;35568;48.104;11.782;2022-09-09T01:03:42;95219.69;;;15.54;50.43
48156;BME280;35568;48.104;11.782;2022-09-09T01:06:16;95221.01;;;15.66;50.42
48156;BME280;35568;48.104;11.782;2022-09-09T01:09:07;95220.78;;;15.66;50.37
48156;BME280;35568;48.104;11.782;2022-09-09T01:11:49;95221.54;;;16.06;50.52
48156;BME280;35568;48.104;11.782;2022-09-09T01:14:25;95213.77;;;15.72;50.88
48156;BME280;35568;48.104;11.782;2022-09-09T01:16:59;95210.90;;;15.98;50.77
48156;BME280;35568;48.104;11.782;2022-09-09T01:19:37;95205.09;;;15.58;50.49
48156;BME280;35568;48.104;11.782;2022-09-09T01:22:14;95204.88;;;15.60;50.52
48156;BME280;35568;48.104;11.782;2022-09-09T01:25:05;95201.39;;;15.55;50.67
48156;BME280;35568;48.104;11.782;2022-09-09T01:27:37;95204.56;;;15.73;50.84
48156;BME280;35568;48.104;11.782;2022-09-09T01:30:08;95207.06;;;15.67;50.98
48156;BME280;35568;48.104;11.782;2022-09-09T01:32:40;95207.62;;;15.70;51.02
48156;BME280;35568;48.104;11.782;2022-09-09T01:35:10;95210.31;;;15.30;51.24
48156;BME280;35568;48.104;11.782;2022-09-09T01:37:38;95209.64;;;15.88;51.10
48156;BME280;35568;48.104;11.782;2022-09-09T01:40:05;95208.62;;;15.36;51.21
48156;BME280;35568;48.104;11.782;2022-09-09T01:42:32;95202.05;;;15.61;51.07
48156;BME280;35568;48.104;11.782;2022-09-09T01:44:59;95208.52;;;15.52;51.03
48156;BME280;35568;48.104;11.782;2022-09-09T01:47:26;95211.44;;;15.66;51.20
48156;BME280;35568;48.104;11.782;2022-09-09T01:49:54;95211.27;;;15.60;51.38
48156;BME280;35568;48.104;11.782;2022-09-09T01:52:21;95213.92;;;15.46;51.08
48156;BME280;35568;48.104;11.782;2022-09-09T01:54:48;95218.35;;;15.57;51.05
48156;BME280;35568;48.104;11.782;2022-09-09T01:57:19;95212.67;;;15.99;51.10
48156;BME280;35568;48.104;11.782;2022-09-09T01:59:58;95209.41;;;15.50;51.14
48156;BME280;35568;48.104;11.782;2022-09-09T02:02:31;95211.64;;;15.54;51.21
48156;BME280;35568;48.104;11.782;2022-09-09T02:05:11;95211.48;;;15.61;51.10
48156;BME280;35568;48.104;11.782;2022-09-09T02:07:41;95209.98;;;15.37;51.21
48156;BME280;35568;48.104;11.782;2022-09-09T02:10:11;95207.93;;;15.35;51.32
48156;BME280;35568;48.104;11.782;2022-09-09T02:12:41;95206.94;;;15.68;51.19
48156;BME280;35568;48.104;11.782;2022-09-09T02:15:16;95201.93;;;15.93;50.92
48156;BME280;35568;48.104;11.782;2022-09-09T02:17:46;95200.77;;;16.21;50.81
48156;BME280;35568;48.104;11.782;2022-09-09T02:20:16;95196.58;;;15.83;50.41
48156;BME280;35568;48.104;11.782;2022-09-09T02:22:49;95197.04;;;16.19;50.07
48156;BME280;35568;48.104;11.782;2022-09-09T02:25:19;95190.91;;;16.16;50.10
48156;BME280;35568;48.104;11.782;2022-09-09T02:27:47;95188.42;;;16.01;49.97
48156;BME280;35568;48.104;11.782;2022-09-09T02:30:16;95192.12;;;15.94;50.13
48156;BME280;35568;48.104;11.782;2022-09-09T02:32:46;95195.97;;;15.75;50.66
48156;BME280;35568;48.104;11.782;2022-09-09T02:35:18;95198.16;;;15.75;50.62
48156;BME280;35568;48.104;11.782;2022-09-09T02:37:46;95199.61;;;15.85;51.05
48156;BME280;35568;48.104;11.782;2022-09-09T02:40:14;95204.92;;;15.75;51.12
48156;BME280;35568;48.104;11.782;2022-09-09T02:42:42;95197.72;;;15.77;51.07
48156;BME280;35568;48.104;11.782;2022-09-09T02:45:12;95194.65;;;15.83;51.31
48156;BME280;35568;48.104;11.782;2022-09-09T02:47:42;95192.55;;;15.74;51.10
48156;BME280;35568;48.104;11.782;2022-09-09T02:50:17;95194.32;;;15.79;50.95
48156;BME280;35568;48.104;11.782;2022-09-09T02:52:55;95193.60;;;15.89;51.25
48156;BME280;35568;48.104;11.782;2022-09-09T02:55:37;95190.31;;;15.82;51.51
48156;BME280;35568;48.104;11.782;2022-09-09T02:58:07;95189.96;;;15.61;50.80
48156;BME280;35568;48.104;11.782;2022-09-09T03:03:02;95181.74;;;16.40;50.41
48156;BME280;35568;48.104;11.782;2022-09-09T03:05:29;95184.12;;;15.92;50.79
48156;BME280;35568;48.104;11.782;2022-09-09T03:07:55;95190.87;;;15.93;51.08
48156;BME280;35568;48.104;11.782;2022-09-09T03:10:22;95188.99;;;15.96;51.35
48156;BME280;35568;48.104;11.782;2022-09-09T03:12:49;95188.20;;;16.39;51.08
48156;BME280;35568;48.104;11.782;2022-09-09T03:15:16;95187.35;;;16.23;50.86
48156;BME280;35568;48.104;11.782;2022-09-09T03:17:43;95182.06;;;16.34;50.53
48156;BME280;35568;48.104;11.782;2022-09-09T03:20:10;95175.45;;;16.42;50.81
48156;BME280;35568;48.104;11.782;2022-09-09T03:22:37;95172.69;;;16.11;50.65
48156;BME280;35568;48.104;11.782;2022-09-09T03:25:05;95171.36;;;16.22;51.01
48156;BME280;35568;48.104;11.782;2022-09-09T03:27:32;95175.80;;;15.97;51.02
48156;BME280;35568;48.104;11.782;2022-09-09T03:29:59;95176.93;;;15.96;51.08
48156;BME280;35568;48.104;11.782;2022-09-09T03:32:25;95171.67;;;15.86;51.08
48156;BME280;35568;48.104;11.782;2022-09-09T03:34:52;95171.47;;;15.89;51.11
48156;BME280;35568;48.104;11.782;2022-09-09T03:37:19;95167.66;;;15.99;51.32
48156;BME280;35568;48.104;11.782;2022-09-09T03:39:46;95165.74;;;15.71;51.51
48156;BME280;35568;48.104;11.782;2022-09-09T03:42:14;95166.74;;;15.93;51.63
48156;BME280;35568;48.104;11.782;2022-09-09T03:44:41;95162.44;;;15.68;51.37
48156;BME280;35568;48.104;11.782;2022-09-09T03:47:08;95161.02;;;15.46;51.74
48156;BME280;35568;48.104;11.782;2022-09-09T03:49:34;95168.18;;;15.64;52.02
48156;BME280;35568;48.104;11.782;2022-09-09T03:52:02;95169.50;;;15.82;51.83
48156;BME280;35568;48.104;11.782;2022-09-09T03:54:29;95167.18;;;15.25;51.96
48156;BME280;35568;48.104;11.782;2022-09-09T03:56:56;95168.84;;;15.77;52.29
48156;BME280;35568;48.104;11.782;2022-09-09T03:59:22;95168.08;;;15.55;52.31
48156;BME280;35568;48.104;11.782;2022-09-09T04:01:49;95164.27;;;15.20;52.12
48156;BME280;35568;48.104;11.782;2022-09-09T04:04:16;95160.11;;;15.43;52.03
48156;BME280;35568;48.104;11.782;2022-09-09T04:06:43;95159.16;;;15.52;51.80
48156;BME280;35568;48.104;11.782;2022-09-09T04:09:10;95166.53;;;15.37;52.24
48156;BME280;35568;48.104;11.782;2022-09-09T04:11:37;95175.83;;;15.10;52.74
48156;BME280;35568;48.104;11.782;2022-09-09T04:14:03;95178.37;;;15.41;52.71
48156;BME280;35568;48.104;11.782;2022-09-09T04:16:30;95173.46;;;15.56;52.49
48156;BME280;35568;48.104;11.782;2022-09-09T04:18:57;95161.65;;;15.75;52.21
48156;BME280;35568;48.104;11.782;2022-09-09T04:21:24;95165.55;;;15.34;52.33
48156;BME280;35568;48.104;11.782;2022-09-09T04:23:50;95169.10;;;15.34;52.00
48156;BME280;35568;48.104;11.782;2022-09-09T04:26:17;95168.56;;;15.34;52.31
48156;BME280;35568;48.104;11.782;2022-09-09T04:28:44;95165.63;;;15.48;52.12
48156;BME280;35568;48.104;11.782;2022-09-09T04:31:15;95158.34;;;15.19;52.10
48156;BME280;35568;48.104;11.782;2022-09-09T04:33:42;95146.56;;;15.73;51.91
48156;BME280;35568;48.104;11.782;2022-09-09T04:36:09;95142.34;;;15.94;51.64
48156;BME280;35568;48.104;11.782;2022-09-09T04:38:36;95143.54;;;15.83;51.63
48156;BME280;35568;48.104;11.782;2022-09-09T04:41:03;95141.91;;;15.37;52.02
48156;BME280;35568;48.104;11.782;2022-09-09T04:43:30;95139.23;;;15.50;51.97
48156;BME280;35568;48.104;11.782;2022-09-09T04:45:57;95139.65;;;15.58;51.89
48156;BME280;35568;48.104;11.782;2022-09-09T04:48:25;95147.77;;;15.29;52.33
48156;BME280;35568;48.104;11.782;2022-09-09T04:50:56;95149.48;;;15.08;52.40
48156;BME280;35568;48.104;11.782;2022-09-09T04:53:24;95153.99;;;15.23;52.57
48156;BME280;35568;48.104;11.782;2022-09-09T04:55:51;95156.11;;;15.25;52.45
48156;BME280;35568;48.104;11.782;2022-09-09T04:58:18;95151.26;;;15.56;52.70
48156;BME280;35568;48.104;11.782;2022-09-09T05:00:45;95143.31;;;15.54;52.36
48156;BME280;35568;48.104;11.782;2022-09-09T05:03:12;95143.92;;;15.47;52.49
48156;BME280;35568;48.104;11.782;2022-09-09T05:05:38;95147.99;;;15.40;52.76
48156;BME280;35568;48.104;11.782;2022-09-09T05:08:07;95152.06;;;15.44;53.24
48156;BME280;35568;48.104;11.782;2022-09-09T05:10:37;95142.09;;;15.35;52.74
48156;BME280;35568;48.104;11.782;2022-09-09T05:13:05;95146.57;;;15.58;52.83
48156;BME280;35568;48.104;11.782;2022-09-09T05:15:33;95150.15;;;15.31;52.85
48156;BME280;35568;48.104;11.782;2022-09-09T05:18:00;95144.42;;;15.78;52.76
48156;BME280;35568;48.104;11.782;2022-09-09T05:20:27;95141.48;;;15.80;52.44
48156;BME280;35568;48.104;11.782;2022-09-09T05:22:55;95143.38;;;15.32;52.35
48156;BME280;35568;48.104;11.782;2022-09-09T05:25:23;95151.54;;;15.77;52.05
48156;BME280;35568;48.104;11.782;2022-09-09T05:27:50;95158.10;;;15.64;52.21
48156;BME280;35568;48.104;11.782;2022-09-09T05:30:17;95162.06;;;15.50;52.45
48156;BME280;35568;48.104;11.782;2022-09-09T05:32:43;95167.25;;;15.73;52.41
48156;BME280;35568;48.104;11.782;2022-09-09T05:35:10;95167.79;;;15.81;52.48
48156;BME280;35568;48.104;11.782;2022-09-09T05:37:37;95170.76;;;16.20;52.46
48156;BME280;35568;48.104;11.782;2022-09-09T05:40:05;95171.88;;;15.91;52.41
48156;BME280;35568;48.104;11.782;2022-09-09T05:42:32;95172.66;;;15.73;52.75
48156;BME280;35568;48.104;11.782;2022-09-09T05:44:58;95173.62;;;15.69;52.67
48156;BME280;35568;48.104;11.782;2022-09-09T05:47:25;95173.15;;;15.86;52.42
48156;BME280;35568;48.104;11.782;2022-09-09T05:49:52;95174.51;;;16.10;52.08
48156;BME280;35568;48.104;11.782;2022-09-09T05:52:19;95169.47;;;16.00;52.13
48156;BME280;35568;48.104;11.782;2022-09-09T05:54:45;95163.62;;;16.30;51.66
48156;BME280;35568;48.104;11.782;2022-09-09T05:57:12;95164.72;;;16.29;51.48
48156;BME280;35568;48.104;11.782;2022-09-09T05:59:39;95166.09;;;16.31;51.78
48156;BME280;35568;48.104;11.782;2022-09-09T06:02:07;95171.83;;;16.25;52.18
48156;BME280;35568;48.104;11.782;2022-09-09T06:04:33;95173.29;;;15.93;52.62
48156;BME280;35568;48.104;11.782;2022-09-09T06:07:00;95175.08;;;15.88;53.26
48156;BME280;35568;48.104;11.782;2022-09-09T06:09:27;95173.56;;;16.04;53.18
48156;BME280;35568;48.104;11.782;2022-09-09T06:11:54;95172.56;;;16.04;53.03
48156;BME280;35568;48.104;11.782;2022-09-09T06:14:21;95175.37;;;16.10;52.93
48156;BME280;35568;48.104;11.782;2022-09-09T06:16:47;95175.33;;;15.95;53.03
48156;BME280;35568;48.104;11.782;2022-09-09T06:19:14;95173.95;;;16.13;52.98
48156;BME280;35568;48.104;11.782;2022-09-09T06:21:41;95169.63;;;16.29;52.94
48156;BME280;35568;48.104;11.782;2022-09-09T06:24:08;95167.97;;;16.19;52.98
48156;BME280;35568;48.104;11.782;2022-09-09T06:26:36;95173.09;;;16.17;52.79
48156;BME280;35568;48.104;11.782;2022-09-09T06:29:04;95173.70;;;16.24;52.73
48156;BME280;35568;48.104;11.782;2022-09-09T06:31:33;95172.79;;;15.97;52.81
48156;BME280;35568;48.104;11.782;2022-09-09T06:34:01;95177.07;;;16.02;53.30
48156;BME280;35568;48.104;11.782;2022-09-09T06:36:29;95177.54;;;16.00;53.34
48156;BME280;35568;48.104;11.782;2022-09-09T06:38:56;95177.25;;;15.72;53.43
48156;BME280;35568;48.104;11.782;2022-09-09T06:41:25;95177.09;;;15.79;53.35
48156;BME280;35568;48.104;11.782;2022-09-09T06:43:52;95179.41;;;16.19;52.98
48156;BME280;35568;48.104;11.782;2022-09-09T06:46:20;95181.11;;;16.16;53.03
48156;BME280;35568;48.104;11.782;2022-09-09T06:48:47;95183.74;;;16.29;52.67
48156;BME280;35568;48.104;11.782;2022-09-09T06:51:16;95192.39;;;16.17;53.11
48156;BME280;35568;48.104;11.782;2022-09-09T06:53:45;95192.52;;;16.17;53.77
48156;BME280;35568;48.104;11.782;2022-09-09T06:56:19;95187.52;;;15.72;54.40
48156;BME280;35568;48.104;11.782;2022-09-09T06:58:47;95183.85;;;15.73;54.60
48156;BME280;35568;48.104;11.782;2022-09-09T07:01:16;95181.29;;;15.94;54.46
48156;BME280;35568;48.104;11.782;2022-09-09T07:03:46;95184.20;;;15.85;54.65
48156;BME280;35568;48.104;11.782;2022-09-09T07:06:14;95185.62;;;15.88;54.62
48156;BME280;35568;48.104;11.782;2022-09-09T07:08:42;95188.68;;;16.14;54.61
48156;BME280;35568;48.104;11.782;2022-09-09T07:11:09;95190.15;;;15.91;54.88
48156;BME280;35568;48.104;11.782;2022-09-09T07:13:37;95189.59;;;16.26;54.48
48156;BME280;35568;48.104;11.782;2022-09-09T07:16:05;95182.47;;;16.26;54.21
48156;BME280;35568;48.104;11.782;2022-09-09T07:18:32;95182.82;;;16.36;54.16
48156;BME280;35568;48.104;11.782;2022-09-09T07:20:58;95180.32;;;16.66;53.95
48156;BME280;35568;48.104;11.782;2022-09-09T07:23:25;95177.61;;;16.59;54.12
48156;BME280;35568;48.104;11.782;2022-09-09T07:25:52;95178.05;;;16.89;53.22
48156;BME280;35568;48.104;11.782;2022-09-09T07:28:19;95179.80;;;16.81;53.01
48156;BME280;35568;48.104;11.782;2022-09-09T07:30:53;95186.98;;;16.74;53.06
48156;BME280;35568;48.104;11.782;2022-09-09T07:33:20;95195.40;;;16.81;53.26
48156;BME280;35568;48.104;11.782;2022-09-09T07:35:47;95196.97;;;16.65;53.86
48156;BME280;35568;48.104;11.782;2022-09-09T07:38:14;95202.85;;;16.24;54.92
48156;BME280;35568;48.104;11.782;2022-09-09T07:40:41;95206.51;;;16.22;55.15
48156;BME280;35568;48.104;11.782;2022-09-09T07:43:08;95212.99;;;16.24;55.19
48156;BME280;35568;48.104;11.782;2022-09-09T07:45:35;95232.17;;;15.81;55.44
48156;BME280;35568;48.104;11.782;2022-09-09T07:48:02;95252.96;;;15.89;55.84
48156;BME280;35568;48.104;11.782;2022-09-09T07:50:28;95266.90;;;15.61;56.62
48156;BME280;35568;48.104;11.782;2022-09-09T07:52:55;95277.45;;;15.76;56.73
48156;BME280;35568;48.104;11.782;2022-09-09T07:55:23;95275.05;;;15.93;56.42
48156;BME280;35568;48.104;11.782;2022-09-09T07:57:50;95277.61;;;16.03;56.30
48156;BME280;35568;48.104;11.782;2022-09-09T08:00:18;95283.67;;;16.16;56.30
48156;BME280;35568;48.104;11.782;2022-09-09T08:02:45;95283.91;;;15.86;56.25
48156;BME280;35568;48.104;11.782;2022-09-09T08:05:12;95280.67;;;16.06;56.08
48156;BME280;35568;48.104;11.782;2022-09-09T08:07:38;95283.93;;;16.42;55.98
48156;BME280;35568;48.104;11.782;2022-09-09T08:10:06;95282.14;;;16.10;56.13
48156;BME280;35568;48.104;11.782;2022-09-09T08:12:33;95285.22;;;16.36;56.23
48156;BME280;35568;48.104;11.782;2022-09-09T08:15:00;95291.12;;;16.56;55.76
48156;BME280;35568;48.104;11.782;2022-09-09T08:17:27;95292.57;;;16.66;55.37
48156;BME280;35568;48.104;11.782;2022-09-09T08:19:54;95293.99;;;16.66;55.65
48156;BME280;35568;48.104;11.782;2022-09-09T08:22:21;95296.20;;;16.60;55.11
48156;BME280;35568;48.104;11.782;2022-09-09T08:24:47;95295.76;;;16.29;55.61
48156;BME280;35568;48.104;11.782;2022-09-09T08:27:14;95290.52;;;16.67;55.61
48156;BME280;35568;48.104;11.782;2022-09-09T08:29:41;95288.29;;;16.86;55.19
48156;BME280;35568;48.104;11.782;2022-09-09T08:32:08;95285.70;;;16.98;54.42
48156;BME280;35568;48.104;11.782;2022-09-09T08:34:35;95288.93;;;16.88;54.00
48156;BME280;35568;48.104;11.782;2022-09-09T08:37:02;95288.78;;;17.33;53.96
48156;BME280;35568;48.104;11.782;2022-09-09T08:39:29;95286.23;;;17.33;54.07
48156;BME280;35568;48.104;11.782;2022-09-09T08:42:07;95292.10;;;17.10;53.71
48156;BME280;35568;48.104;11.782;2022-09-09T08:44:50;95300.69;;;17.17;53.20
48156;BME280;35568;48.104;11.782;2022-09-09T08:47:28;95307.28;;;17.37;53.55
48156;BME280;35568;48.104;11.782;2022-09-09T08:50:16;95303.85;;;17.12;53.69
48156;BME280;35568;48.104;11.782;2022-09-09T08:52:53;95302.21;;;17.06;53.52
48156;BME280;35568;48.104;11.782;2022-09-09T08:55:27;95301.25;;;16.79;53.49
48156;BME280;35568;48.104;11.782;2022-09-09T08:57:58;95303.89;;;16.81;54.01
48156;BME280;35568;48.104;11.782;2022-09-09T09:00:31;95300.61;;;16.63;54.10
48156;BME280;35568;48.104;11.782;2022-09-09T09:03:09;95294.56;;;16.81;54.21
48156;BME280;35568;48.104;11.782;2022-09-09T09:05:46;95295.85;;;17.20;54.01
48156;BME280;35568;48.104;11.782;2022-09-09T09:08:20;95302.43;;;17.44;53.97
48156;BME280;35568;48.104;11.782;2022-09-09T09:10:54;95303.95;;;17.29;53.77
48156;BME280;35568;48.104;11.782;2022-09-09T09:13:27;95305.41;;;17.06;53.78
48156;BME280;35568;48.104;11.782;2022-09-09T09:16:02;95303.30;;;17.01;54.04
48156;BME280;35568;48.104;11.782;2022-09-09T09:18:33;95301.10;;;17.27;53.89
48156;BME280;35568;48.104;11.782;2022-09-09T09:21:04;95298.13;;;17.11;53.80
48156;BME280;35568;48.104;11.782;2022-09-09T09:23:39;95294.60;;;17.05;53.75
48156;BME280;35568;48.104;11.782;2022-09-09T09:26:10;95293.44;;;17.09;54.03
48156;BME280;35568;48.104;11.782;2022-09-09T09:28:36;95291.45;;;17.29;53.90
48156;BME280;35568;48.104;11.782;2022-09-09T09:31:06;95294.24;;;17.18;54.18
48156;BME280;35568;48.104;11.782;2022-09-09T09:33:38;95298.35;;;16.92;54.52
48156;BME280;35568;48.104;11.782;2022-09-09T09:36:08;95299.03;;;17.04;54.84
48156;BME280;35568;48.104;11.782;2022-09-09T09:38:36;95303.49;;;16.80;55.03
48156;BME280;35568;48.104;11.782;2022-09-09T09:41:04;95310.68;;;16.87;55.39
48156;BME280;35568;48.104;11.782;2022-09-09T09:43:32;95315.15;;;16.75;55.45
48156;BME280;35568;48.104;11.782;2022-09-09T09:45:59;95316.35;;;16.90;55.47
48156;BME280;35568;48.104;11.782;2022-09-09T09:48:26;95316.15;;;17.06;55.70
48156;BME280;35568;48.104;11.782;2022-09-09T09:50:56;95317.95;;;16.89;55.44
48156;BME280;35568;48.104;11.782;2022-09-09T09:53:26;95317.47;;;16.87;55.23
48156;BME280;35568;48.104;11.782;2022-09-09T09:55:56;95313.86;;;17.45;55.00
48156;BME280;35568;48.104;11.782;2022-09-09T09:58:23;95312.78;;;17.40;54.76
48156;BME280;35568;48.104;11.782;2022-09-09T10:00:53;95308.76;;;17.42;54.40
48156;BME280;35568;48.104;11.782;2022-09-09T10:03:24;95314.97;;;18.02;53.57
48156;BME280;35568;48.104;11.782;2022-09-09T10:05:51;95314.29;;;18.26;53.37
48156;BME280;35568;48.104;11.782;2022-09-09T10:08:19;95311.65;;;18.27;52.62
48156;BME280;35568;48.104;11.782;2022-09-09T10:10:53;95308.38;;;18.57;52.08
48156;BME280;35568;48.104;11.782;2022-09-09T10:13:29;95305.56;;;18.36;51.16
48156;BME280;35568;48.104;11.782;2022-09-09T10:16:09;95303.15;;;18.67;51.46
48156;BME280;35568;48.104;11.782;2022-09-09T10:18:48;95309.04;;;18.62;50.94
48156;BME280;35568;48.104;11.782;2022-09-09T10:21:30;95315.96;;;18.61;51.04
48156;BME280;35568;48.104;11.782;2022-09-09T10:25:14;95314.62;;;18.32;51.02
48156;BME280;35568;48.104;11.782;2022-09-09T10:27:54;95310.56;;;18.35;50.85
48156;BME280;35568;48.104;11.782;2022-09-09T10:30:30;95308.61;;;18.16;51.10
48156;BME280;35568;48.104;11.782;2022-09-09T10:33:04;95303.75;;;18.57;50.64
48156;BME280;35568;48.104;11.782;2022-09-09T10:35:40;95301.39;;;18.53;50.54
48156;BME280;35568;48.104;11.782;2022-09-09T10:38:13;95302.30;;;18.80;50.52
48156;BME280;35568;48.104;11.782;2022-09-09T10:40:46;95301.94;;;18.69;50.03
48156;BME280;35568;48.104;11.782;2022-09-09T10:43:25;95304.36;;;18.64;50.32
48156;BME280;35568;48.104;11.782;2022-09-09T10:46:04;95308.71;;;18.55;50.56
48156;BME280;35568;48.104;11.782;2022-09-09T10:48:44;95310.49;;;18.68;50.84
48156;BME280;35568;48.104;11.782;2022-09-09T10:51:23;95309.68;;;18.63;50.54
48156;BME280;35568;48.104;11.782;2022-09-09T10:54:11;95308.68;;;18.29;50.72
48156;BME280;35568;48.104;11.782;2022-09-09T10:56:42;95306.99;;;18.76;50.87
48156;BME280;35568;48.104;11.782;2022-09-09T10:59:13;95309.87;;;18.78;50.25
48156;BME280;35568;48.104;11.782;2022-09-09T11:01:45;95312.84;;;18.94;50.05
48156;BME280;35568;48.104;11.782;2022-09-09T11:04:19;95312.79;;;19.45;49.75
48156;BME280;35568;48.104;11.782;2022-09-09T11:06:52;95316.08;;;19.55;49.83
48156;BME280;35568;48.104;11.782;2022-09-09T11:09:23;95317.07;;;19.63;49.32
48156;BME280;35568;48.104;11.782;2022-09-09T11:11:53;95319.16;;;19.83;48.77
48156;BME280;35568;48.104;11.782;2022-09-09T11:14:26;95316.88;;;19.47;49.05
48156;BME280;35568;48.104;11.782;2022-09-09T11:16:58;95313.52;;;19.61;48.41
48156;BME280;35568;48.104;11.782;2022-09-09T11:19:30;95311.41;;;19.52;48.49
48156;BME280;35568;48.104;11.782;2022-09-09T11:22:03;95313.66;;;19.07;48.71
48156;BME280;35568;48.104;11.782;2022-09-09T11:24:34;95315.53;;;19.13;48.88
48156;BME280;35568;48.104;11.782;2022-09-09T11:27:07;95316.20;;;19.05;48.92
48156;BME280;35568;48.104;11.782;2022-09-09T11:30:17;95318.27;;;19.42;48.99
48156;BME280;35568;48.104;11.782;2022-09-09T11:33:04;95313.27;;;19.58;48.18
48156;BME280;35568;48.104;11.782;2022-09-09T11:35:45;95311.13;;;19.96;47.97
48156;BME280;35568;48.104;11.782;2022-09-09T11:38:26;95306.07;;;19.78;47.44
48156;BME280;35568;48.104;11.782;2022-09-09T11:40:56;95305.60;;;19.52;47.07
48156;BME280;35568;48.104;11.782;2022-09-09T11:43:26;95304.93;;;19.63;46.71
48156;BME280;35568;48.104;11.782;2022-09-09T11:45:55;95307.91;;;19.18;46.21
48156;BME280;35568;48.104;11.782;2022-09-09T11:48:28;95305.83;;;19.55;46.31
48156;BME280;35568;48.104;11.782;2022-09-09T11:51:02;95307.28;;;19.52;45.78
48156;BME280;35568;48.104;11.782;2022-09-09T11:53:29;95308.57;;;19.86;45.58
48156;BME280;35568;48.104;11.782;2022-09-09T11:56:07;95304.82;;;19.49;45.57
48156;BME280;35568;48.104;11.782;2022-09-09T11:58:41;95305.65;;;20.16;45.25
48156;BME280;35568;48.104;11.782;2022-09-09T12:01:16;95308.02;;;20.35;43.85
48156;BME280;35568;48.104;11.782;2022-09-09T12:03:45;95306.38;;;20.54;43.59
48156;BME280;35568;48.104;11.782;2022-09-09T12:06:17;95304.97;;;20.34;43.47
48156;BME280;35568;48.104;11.782;2022-09-09T12:08:48;95305.86;;;20.38;43.32
48156;BME280;35568;48.104;11.782;2022-09-09T12:11:24;95306.22;;;20.39;43.55
48156;BME280;35568;48.104;11.782;2022-09-09T12:13:54;95302.61;;;20.22;43.42
48156;BME280;35568;48.104;11.782;2022-09-09T12:16:31;95300.71;;;19.94;43.80
48156;BME280;35568;48.104;11.782;2022-09-09T12:19:13;95297.85;;;20.18;43.61
48156;BME280;35568;48.104;11.782;2022-09-09T12:21:46;95297.81;;;21.28;42.71
48156;BME280;35568;48.104;11.782;2022-09-09T12:24:22;95297.08;;;21.25;42.64
48156;BME280;35568;48.104;11.782;2022-09-09T12:26:56;95297.37;;;20.88;42.55
48156;BME280;35568;48.104;11.782;2022-09-09T12:29:30;95296.79;;;21.34;42.45
48156;BME280;35568;48.104;11.782;2022-09-09T12:32:05;95298.85;;;21.38;42.18
48156;BME280;35568;48.104;11.782;2022-09-09T12:34:38;95299.40;;;21.16;42.59
48156;BME280;35568;48.104;11.782;2022-09-09T12:37:13;95299.77;;;21.09;42.47
48156;BME280;35568;48.104;11.782;2022-09-09T12:39:45;95295.91;;;21.42;42.68
48156;BME280;35568;48.104;11.782;2022-09-09T12:42:18;95292.67;;;21.18;42.19
48156;BME280;35568;48.104;11.782;2022-09-09T12:44:55;95288.55;;;20.87;42.16
48156;BME280;35568;48.104;11.782;2022-09-09T12:47:27;95283.67;;;21.16;42.35
48156;BME280;35568;48.104;11.782;2022-09-09T12:49:56;95283.43;;;21.01;42.76
48156;BME280;35568;48.104;11.782;2022-09-09T12:52:27;95288.96;;;21.18;42.07
48156;BME280;35568;48.104;11.782;2022-09-09T12:54:57;95286.87;;;21.36;42.22
48156;BME280;35568;48.104;11.782;2022-09-09T12:57:30;95287.64;;;21.36;42.63
48156;BME280;35568;48.104;11.782;2022-09-09T13:00:06;95276.97;;;21.36;42.49
48156;BME280;35568;48.104;11.782;2022-09-09T13:02:33;95269.02;;;21.95;42.27
48156;BME280;35568;48.104;11.782;2022-09-09T13:05:12;95266.11;;;21.50;41.92
48156;BME280;35568;48.104;11.782;2022-09-09T13:07:40;95263.71;;;21.65;41.88
48156;BME280;35568;48.104;11.782;2022-09-09T13:10:11;95258.30;;;21.46;41.02
48156;BME280;35568;48.104;11.782;2022-09-09T13:12:38;95257.19;;;22.07;41.65